createdAt,value
2023-03-18T00:01:01.401Z,11.11
2023-03-18T00:03:49.262Z,11.02
2023-03-18T00:06:38.145Z,10.99
2023-03-18T00:09:24.721Z,10.86
2023-03-18T00:12:12.708Z,10.92
2023-03-18T00:14:59.676Z,10.89
2023-03-18T00:17:46.709Z,10.82
2023-03-18T00:20:39.440Z,10.93
2023-03-18T00:23:26.165Z,10.91
2023-03-18T00:26:12.606Z,10.93
2023-03-18T00:29:02.704Z,10.90
2023-03-18T00:31:49.646Z,10.88
2023-03-18T00:34:35.607Z,11.01
2023-03-18T00:37:30.361Z,11.08
2023-03-18T00:40:20.491Z,11.15
2023-03-18T00:43:08.731Z,11.22
2023-03-18T00:45:57.461Z,11.27
2023-03-18T00:48:44.057Z,11.12
2023-03-18T00:51:32.333Z,11.14
2023-03-18T00:54:20.799Z,11.15
2023-03-18T00:57:08.035Z,11.14
2023-03-18T00:59:55.779Z,11.20
2023-03-18T01:02:44.100Z,11.23
2023-03-18T01:05:30.430Z,11.25
2023-03-18T01:08:17.269Z,11.30
2023-03-18T01:11:04.913Z,11.13
2023-03-18T01:13:51.836Z,11.14
2023-03-18T01:16:38.250Z,11.02
2023-03-18T01:19:26.608Z,11.13
2023-03-18T01:22:12.889Z,11.03
2023-03-18T01:25:05.078Z,11.00
2023-03-18T01:27:55.852Z,11.08
2023-03-18T01:30:42.749Z,11.08
2023-03-18T01:33:30.268Z,11.13
2023-03-18T01:36:18.534Z,11.13
2023-03-18T01:39:18.467Z,11.14
2023-03-18T01:42:06.327Z,11.14
2023-03-18T01:45:17.978Z,11.10
2023-03-18T01:48:04.791Z,11.00
2023-03-18T01:50:55.337Z,10.97
2023-03-18T01:53:49.548Z,11.01
2023-03-18T01:56:40.105Z,11.13
2023-03-18T01:59:30.705Z,11.22
2023-03-18T02:02:18.868Z,11.32
2023-03-18T02:05:08.195Z,11.31
2023-03-18T02:07:54.852Z,11.21
2023-03-18T02:10:42.864Z,11.20
2023-03-18T02:13:31.821Z,11.16
2023-03-18T02:16:22.477Z,11.22
2023-03-18T02:19:15.733Z,11.28
2023-03-18T02:22:12.106Z,11.31
2023-03-18T02:25:12.023Z,11.29
2023-03-18T02:28:04.105Z,11.26
2023-03-18T02:30:55.634Z,11.24
2023-03-18T02:33:43.636Z,11.36
2023-03-18T02:36:32.670Z,11.40
2023-03-18T02:39:22.473Z,11.30
2023-03-18T02:42:13.017Z,11.36
2023-03-18T02:45:04.451Z,11.15
2023-03-18T02:48:07.061Z,11.11
2023-03-18T02:50:54.612Z,11.03
2023-03-18T02:53:41.925Z,11.33
2023-03-18T02:56:28.574Z,11.26
2023-03-18T02:59:15.935Z,11.09
2023-03-18T03:02:03.820Z,11.04
2023-03-18T03:04:50.472Z,11.02
2023-03-18T03:07:37.971Z,11.00
2023-03-18T03:10:27.440Z,10.92
2023-03-18T03:13:15.646Z,10.96
2023-03-18T03:16:02.353Z,11.04
2023-03-18T03:18:50.585Z,11.01
2023-03-18T03:21:37.212Z,11.02
2023-03-18T03:24:23.986Z,11.00
2023-03-18T03:27:10.704Z,10.99
2023-03-18T03:29:57.176Z,11.13
2023-03-18T03:32:43.498Z,11.17
2023-03-18T03:35:33.030Z,10.98
2023-03-18T03:38:19.729Z,11.01
2023-03-18T03:41:06.433Z,11.01
2023-03-18T03:43:53.096Z,11.11
2023-03-18T03:46:39.181Z,11.06
2023-03-18T03:49:26.113Z,11.09
2023-03-18T03:52:14.298Z,11.20
2023-03-18T03:55:05.958Z,11.07
2023-03-18T03:57:53.261Z,10.90
2023-03-18T04:00:39.612Z,10.92
2023-03-18T04:03:26.174Z,10.92
2023-03-18T04:06:13.246Z,11.09
2023-03-18T04:09:07.771Z,10.94
2023-03-18T04:11:54.085Z,11.04
2023-03-18T04:14:40.666Z,10.98
2023-03-18T04:17:27.243Z,11.00
2023-03-18T04:20:14.699Z,10.95
2023-03-18T04:23:01.150Z,10.92
2023-03-18T04:25:49.339Z,10.93
2023-03-18T04:28:36.132Z,11.02
2023-03-18T04:31:25.037Z,10.93
2023-03-18T04:34:12.023Z,10.92
2023-03-18T04:36:58.445Z,10.92
2023-03-18T04:39:47.232Z,10.96
2023-03-18T04:42:34.858Z,10.96
2023-03-18T04:45:22.674Z,10.89
2023-03-18T04:48:12.750Z,11.01
2023-03-18T04:51:02.038Z,10.85
2023-03-18T04:53:50.266Z,10.92
2023-03-18T04:56:37.036Z,10.94
2023-03-18T04:59:24.969Z,10.90
2023-03-18T05:02:12.988Z,11.01
2023-03-18T05:05:01.092Z,10.94
2023-03-18T05:07:49.688Z,11.04
2023-03-18T05:10:40.088Z,10.91
2023-03-18T05:13:28.436Z,10.83
2023-03-18T05:16:16.482Z,10.87
2023-03-18T05:19:03.337Z,10.88
2023-03-18T05:21:50.022Z,10.80
2023-03-18T05:24:39.073Z,10.79
2023-03-18T05:27:27.487Z,10.98
2023-03-18T05:30:19.806Z,11.01
2023-03-18T05:33:11.495Z,10.90
2023-03-18T05:36:05.750Z,10.92
2023-03-18T05:38:58.390Z,10.98
2023-03-18T05:41:45.229Z,11.09
2023-03-18T05:44:35.924Z,11.05
2023-03-18T05:47:24.318Z,11.10
2023-03-18T05:50:31.066Z,11.01
2023-03-18T05:53:18.939Z,11.01
2023-03-18T05:56:08.809Z,11.09
2023-03-18T05:58:55.375Z,11.00
2023-03-18T06:01:52.655Z,10.95
2023-03-18T06:04:40.121Z,11.15
2023-03-18T06:07:27.926Z,11.23
2023-03-18T06:10:14.894Z,11.04
2023-03-18T06:13:03.052Z,11.19
2023-03-18T06:15:49.421Z,11.13
2023-03-18T06:18:35.936Z,11.08
2023-03-18T06:21:22.579Z,11.32
2023-03-18T06:24:10.699Z,11.18
2023-03-18T06:26:58.685Z,11.14
2023-03-18T06:29:45.596Z,11.19
2023-03-18T06:32:36.756Z,11.25
2023-03-18T06:35:26.579Z,11.21
2023-03-18T06:38:14.479Z,11.39
2023-03-18T06:41:03.422Z,11.34
2023-03-18T06:43:54.525Z,11.25
2023-03-18T06:46:44.016Z,11.15
2023-03-18T06:49:31.740Z,11.34
2023-03-18T06:52:27.586Z,11.28
2023-03-18T06:55:19.059Z,11.13
2023-03-18T06:58:07.163Z,11.21
2023-03-18T07:01:02.896Z,11.18
2023-03-18T07:03:54.586Z,11.41
2023-03-18T07:06:41.326Z,11.43
2023-03-18T07:09:27.682Z,11.43
2023-03-18T07:12:17.521Z,11.36
2023-03-18T07:15:05.685Z,11.35
2023-03-18T07:17:53.287Z,11.56
2023-03-18T07:20:40.158Z,11.65
2023-03-18T07:23:27.657Z,11.70
2023-03-18T07:26:17.093Z,11.65
2023-03-18T07:29:05.388Z,11.85
2023-03-18T07:31:54.007Z,11.68
2023-03-18T07:34:41.129Z,11.91
2023-03-18T07:37:28.769Z,12.15
2023-03-18T07:40:15.545Z,12.08
2023-03-18T07:43:01.821Z,12.09
2023-03-18T07:45:48.466Z,12.11
2023-03-18T07:48:36.158Z,12.40
2023-03-18T07:51:22.865Z,12.39
2023-03-18T07:54:09.538Z,12.51
2023-03-18T07:56:55.958Z,12.65
2023-03-18T07:59:42.457Z,12.80
2023-03-18T08:02:29.064Z,12.49
2023-03-18T08:05:16.676Z,12.41
2023-03-18T08:08:04.351Z,12.64
2023-03-18T08:10:51.049Z,12.77
2023-03-18T08:13:38.407Z,12.71
2023-03-18T08:16:25.620Z,13.06
2023-03-18T08:19:12.409Z,13.22
2023-03-18T08:22:00.002Z,13.33
2023-03-18T08:24:46.417Z,13.59
2023-03-18T08:27:33.059Z,13.12
2023-03-18T08:30:20.176Z,13.14
2023-03-18T08:33:06.577Z,13.41
2023-03-18T08:35:53.179Z,13.04
2023-03-18T08:38:40.719Z,12.84
2023-03-18T08:41:27.171Z,12.88
2023-03-18T08:44:13.537Z,12.96
2023-03-18T08:47:00.394Z,13.03
2023-03-18T08:49:46.744Z,13.28
2023-03-18T08:52:33.491Z,13.55
2023-03-18T08:55:21.390Z,13.82
2023-03-18T08:58:09.049Z,13.53
2023-03-18T09:00:55.884Z,13.34
2023-03-18T09:03:42.521Z,13.21
2023-03-18T09:06:29.952Z,13.27
2023-03-18T09:09:16.741Z,13.29
2023-03-18T09:12:05.683Z,13.58
2023-03-18T09:14:52.611Z,13.48
2023-03-18T09:17:56.497Z,13.49
2023-03-18T09:20:47.393Z,13.51
2023-03-18T09:23:34.361Z,13.84
2023-03-18T09:26:20.823Z,13.45
2023-03-18T09:29:08.744Z,13.85
2023-03-18T09:31:56.370Z,13.71
2023-03-18T09:34:43.053Z,13.89
2023-03-18T09:37:29.360Z,14.14
2023-03-18T09:40:22.044Z,14.04
2023-03-18T09:43:21.760Z,13.72
2023-03-18T09:46:20.240Z,13.92
2023-03-18T09:49:19.306Z,14.38
2023-03-18T09:52:18.291Z,14.37
2023-03-18T09:55:10.346Z,14.73
2023-03-18T09:58:03.128Z,14.77
2023-03-18T10:00:52.860Z,14.73
2023-03-18T10:03:46.725Z,14.82
2023-03-18T10:06:34.464Z,14.53
2023-03-18T10:09:26.222Z,14.75
2023-03-18T10:12:19.127Z,14.65
2023-03-18T10:15:16.582Z,14.68
2023-03-18T10:18:11.536Z,14.60
2023-03-18T10:21:13.015Z,14.69
2023-03-18T10:24:19.354Z,14.75
2023-03-18T10:27:15.249Z,14.70
2023-03-18T10:30:07.373Z,14.84
2023-03-18T10:33:01.940Z,15.32
2023-03-18T10:35:53.052Z,15.66
2023-03-18T10:38:44.723Z,15.03
2023-03-18T10:41:34.637Z,15.15
2023-03-18T10:44:25.775Z,15.30
2023-03-18T10:47:19.026Z,15.77
2023-03-18T10:50:17.449Z,15.96
2023-03-18T10:53:13.742Z,15.81
2023-03-18T10:56:06.047Z,15.86
2023-03-18T10:58:53.610Z,16.16
2023-03-18T11:01:41.589Z,16.30
2023-03-18T11:04:30.594Z,15.88
2023-03-18T11:07:25.918Z,15.65
2023-03-18T11:10:19.926Z,15.69
2023-03-18T11:13:07.685Z,15.69
2023-03-18T11:15:56.680Z,16.07
2023-03-18T11:18:46.114Z,16.18
2023-03-18T11:21:34.458Z,15.93
2023-03-18T11:24:36.286Z,16.24
2023-03-18T11:27:26.864Z,16.00
2023-03-18T11:30:41.033Z,16.36
2023-03-18T11:33:35.058Z,16.12
2023-03-18T11:36:25.062Z,15.92
2023-03-18T11:39:13.878Z,15.62
2023-03-18T11:42:01.455Z,15.63
2023-03-18T11:44:49.964Z,15.61
2023-03-18T11:47:39.060Z,15.77
2023-03-18T11:50:31.392Z,15.62
2023-03-18T11:53:28.029Z,15.66
2023-03-18T11:56:21.170Z,15.61
2023-03-18T11:59:26.743Z,15.75
2023-03-18T12:02:27.221Z,16.36
2023-03-18T12:05:38.499Z,16.02
2023-03-18T12:08:37.753Z,15.90
2023-03-18T12:11:34.473Z,16.03
2023-03-18T12:14:28.608Z,15.79
2023-03-18T12:17:27.050Z,15.86
2023-03-18T12:20:40.335Z,15.66
2023-03-18T12:23:51.150Z,15.96
2023-03-18T12:26:45.875Z,15.85
2023-03-18T12:29:56.491Z,15.87
2023-03-18T12:32:50.776Z,15.54
2023-03-18T12:35:55.703Z,15.35
2023-03-18T12:38:56.330Z,15.46
2023-03-18T12:41:52.662Z,15.13
2023-03-18T12:44:53.076Z,15.32
2023-03-18T12:47:45.436Z,15.17
2023-03-18T12:50:38.142Z,15.29
2023-03-18T12:53:30.935Z,15.29
2023-03-18T12:56:21.401Z,15.28
2023-03-18T12:59:14.077Z,15.23
2023-03-18T13:02:41.185Z,15.17
2023-03-18T13:05:38.137Z,15.18
2023-03-18T13:08:40.530Z,15.41
2023-03-18T13:11:46.264Z,15.41
2023-03-18T13:14:44.557Z,16.04
2023-03-18T13:17:34.023Z,16.43
2023-03-18T13:20:24.645Z,16.79
2023-03-18T13:23:23.242Z,16.34
2023-03-18T13:26:22.171Z,16.46
2023-03-18T13:29:20.410Z,16.46
2023-03-18T13:32:25.474Z,16.57
2023-03-18T13:35:51.498Z,16.50
2023-03-18T13:39:10.748Z,16.47
2023-03-18T13:42:22.284Z,16.03
2023-03-18T13:45:25.354Z,16.27
2023-03-18T13:48:16.555Z,15.80
2023-03-18T13:51:20.388Z,16.43
2023-03-18T13:54:13.484Z,16.35
2023-03-18T13:57:17.858Z,16.39
2023-03-18T14:00:32.379Z,15.77
2023-03-18T14:03:23.144Z,15.94
2023-03-18T14:06:26.516Z,15.87
2023-03-18T14:09:36.604Z,15.92
2023-03-18T14:12:39.719Z,16.16
2023-03-18T14:15:44.314Z,16.27
2023-03-18T14:18:36.966Z,16.13
2023-03-18T14:21:25.612Z,16.56
2023-03-18T14:24:14.395Z,16.08
2023-03-18T14:27:15.897Z,16.35
2023-03-18T14:30:41.175Z,16.59
2023-03-18T14:33:40.990Z,16.77
2023-03-18T14:36:47.061Z,16.75
2023-03-18T14:39:38.474Z,16.80
2023-03-18T14:42:31.608Z,16.17
2023-03-18T14:45:24.443Z,15.88
2023-03-18T14:48:18.281Z,16.09
2023-03-18T14:51:11.691Z,15.92
2023-03-18T14:54:04.832Z,16.49
2023-03-18T14:56:56.582Z,17.22
2023-03-18T14:59:43.260Z,16.70
2023-03-18T15:02:35.008Z,16.48
2023-03-18T15:05:22.710Z,16.38
2023-03-18T15:08:17.885Z,16.81
2023-03-18T15:11:07.433Z,16.27
2023-03-18T15:13:56.878Z,16.07
2023-03-18T15:16:50.575Z,16.52
2023-03-18T15:19:37.061Z,16.47
2023-03-18T15:22:26.038Z,16.40
2023-03-18T15:25:19.277Z,16.68
2023-03-18T15:28:07.190Z,16.70
2023-03-18T15:30:55.858Z,16.31
2023-03-18T15:33:43.073Z,16.42
2023-03-18T15:36:29.998Z,16.60
2023-03-18T15:39:30.618Z,16.87
2023-03-18T15:42:20.105Z,16.69
2023-03-18T15:45:07.210Z,16.52
2023-03-18T15:47:54.274Z,16.51
2023-03-18T15:50:52.894Z,16.55
2023-03-18T15:53:43.731Z,17.07
2023-03-18T15:56:31.134Z,16.92
2023-03-18T15:59:24.912Z,17.16
2023-03-18T16:02:15.361Z,16.83
2023-03-18T16:05:17.925Z,17.10
2023-03-18T16:08:04.160Z,17.25
2023-03-18T16:10:52.558Z,17.09
2023-03-18T16:13:39.901Z,17.10
2023-03-18T16:16:30.508Z,17.24
2023-03-18T16:19:24.918Z,16.94
2023-03-18T16:22:12.494Z,17.35
2023-03-18T16:25:01.164Z,17.14
2023-03-18T16:27:50.059Z,17.21
2023-03-18T16:30:40.058Z,17.35
2023-03-18T16:33:27.826Z,16.64
2023-03-18T16:36:24.769Z,16.08
2023-03-18T16:39:15.989Z,15.87
2023-03-18T16:42:04.197Z,15.81
2023-03-18T16:44:50.719Z,15.72
2023-03-18T16:47:36.832Z,15.39
2023-03-18T16:50:28.405Z,15.30
2023-03-18T16:53:18.333Z,15.24
2023-03-18T16:56:16.427Z,15.21
2023-03-18T16:59:02.756Z,14.65
2023-03-18T17:01:50.583Z,14.60
2023-03-18T17:04:37.609Z,14.49
2023-03-18T17:07:25.469Z,14.49
2023-03-18T17:10:13.430Z,14.45
2023-03-18T17:13:05.774Z,14.36
2023-03-18T17:15:52.705Z,14.23
2023-03-18T17:18:38.759Z,14.16
2023-03-18T17:21:28.415Z,14.21
2023-03-18T17:24:16.091Z,14.16
2023-03-18T17:27:02.597Z,14.12
2023-03-18T17:29:49.026Z,14.03
2023-03-18T17:32:36.073Z,13.85
2023-03-18T17:35:24.198Z,13.97
2023-03-18T17:38:11.075Z,13.85
2023-03-18T17:41:00.094Z,13.69
2023-03-18T17:43:47.150Z,13.80
2023-03-18T17:46:33.771Z,13.77
2023-03-18T17:49:24.275Z,13.65
2023-03-18T17:52:12.166Z,13.65
2023-03-18T17:54:58.646Z,13.59
2023-03-18T17:57:46.818Z,13.58
2023-03-18T18:00:33.878Z,13.38
2023-03-18T18:03:23.036Z,13.18
2023-03-18T18:06:16.843Z,13.23
2023-03-18T18:09:04.385Z,13.34
2023-03-18T18:11:51.011Z,13.36
2023-03-18T18:14:39.756Z,13.45
2023-03-18T18:17:25.802Z,13.37
2023-03-18T18:20:15.185Z,13.42
2023-03-18T18:23:03.055Z,13.42
2023-03-18T18:25:49.669Z,13.51
2023-03-18T18:28:37.706Z,13.42
2023-03-18T18:31:25.362Z,13.41
2023-03-18T18:34:12.287Z,13.46
2023-03-18T18:36:58.778Z,13.46
2023-03-18T18:39:45.304Z,13.45
2023-03-18T18:42:31.683Z,13.44
2023-03-18T18:45:21.152Z,13.48
2023-03-18T18:48:14.456Z,13.35
2023-03-18T18:51:02.008Z,13.40
2023-03-18T18:53:49.094Z,13.53
2023-03-18T18:56:36.877Z,13.50
2023-03-18T18:59:27.508Z,13.54
2023-03-18T19:02:29.789Z,13.40
2023-03-18T19:05:17.660Z,13.43
2023-03-18T19:08:04.685Z,13.58
2023-03-18T19:10:51.690Z,13.49
2023-03-18T19:13:38.549Z,13.41
2023-03-18T19:16:30.783Z,13.55
2023-03-18T19:19:19.920Z,13.64
2023-03-18T19:22:10.409Z,13.29
2023-03-18T19:24:57.252Z,13.43
2023-03-18T19:27:43.599Z,13.51
2023-03-18T19:30:30.184Z,13.66
2023-03-18T19:33:18.138Z,13.45
2023-03-18T19:36:07.868Z,13.19
2023-03-18T19:39:04.463Z,13.29
2023-03-18T19:42:00.870Z,13.15
2023-03-18T19:44:53.817Z,12.96
2023-03-18T19:47:50.929Z,12.71
2023-03-18T19:50:49.625Z,12.43
2023-03-18T19:53:43.326Z,12.19
2023-03-18T19:56:38.839Z,12.07
2023-03-18T19:59:38.714Z,12.03
2023-03-18T20:02:36.840Z,11.93
2023-03-18T20:05:28.069Z,11.87
2023-03-18T20:08:19.313Z,11.74
2023-03-18T20:11:17.341Z,11.72
2023-03-18T20:14:22.606Z,11.58
2023-03-18T20:17:30.721Z,11.39
2023-03-18T20:20:26.315Z,11.43
2023-03-18T20:23:29.318Z,11.37
2023-03-18T20:26:19.329Z,11.43
2023-03-18T20:29:22.811Z,11.39
2023-03-18T20:32:13.186Z,11.39
2023-03-18T20:35:03.745Z,11.30
2023-03-18T20:38:00.549Z,11.09
2023-03-18T20:40:50.805Z,11.02
2023-03-18T20:43:42.449Z,11.11
2023-03-18T20:46:47.802Z,11.07
2023-03-18T20:49:45.380Z,11.04
2023-03-18T20:52:37.397Z,10.99
2023-03-18T20:55:35.330Z,11.00
2023-03-18T20:58:42.353Z,11.03
2023-03-18T21:01:39.773Z,11.02
2023-03-18T21:04:31.481Z,11.07
2023-03-18T21:07:23.678Z,11.05
2023-03-18T21:10:19.298Z,11.17
2023-03-18T21:13:20.423Z,11.06
2023-03-18T21:16:15.523Z,11.11
2023-03-18T21:19:11.173Z,11.11
2023-03-18T21:22:06.502Z,11.11
2023-03-18T21:24:56.330Z,11.07
2023-03-18T21:27:48.225Z,11.15
2023-03-18T21:30:49.886Z,11.17
2023-03-18T21:33:43.983Z,11.11
2023-03-18T21:36:37.497Z,11.14
2023-03-18T21:39:30.218Z,11.25
2023-03-18T21:42:24.330Z,11.17
2023-03-18T21:45:16.679Z,11.20
2023-03-18T21:48:09.582Z,11.23
2023-03-18T21:51:08.531Z,11.24
2023-03-18T21:53:58.989Z,11.11
2023-03-18T21:56:53.079Z,11.24
2023-03-18T21:59:43.496Z,11.23
2023-03-18T22:02:38.814Z,11.22
2023-03-18T22:05:34.812Z,11.27
2023-03-18T22:08:42.206Z,11.33
2023-03-18T22:11:34.162Z,11.36
2023-03-18T22:14:33.793Z,11.35
2023-03-18T22:17:37.167Z,11.42
2023-03-18T22:20:35.981Z,11.41
2023-03-18T22:23:28.358Z,11.41
2023-03-18T22:26:20.732Z,11.42
2023-03-18T22:29:27.894Z,11.41
2023-03-18T22:32:33.689Z,11.39
2023-03-18T22:35:27.606Z,11.36
2023-03-18T22:38:21.882Z,11.39
2023-03-18T22:41:21.998Z,11.32
2023-03-18T22:44:26.793Z,11.22
2023-03-18T22:47:32.281Z,11.33
2023-03-18T22:50:33.518Z,11.38
2023-03-18T22:53:31.488Z,11.31
2023-03-18T22:56:30.379Z,11.28
2023-03-18T22:59:28.677Z,11.30
2023-03-18T23:02:28.419Z,11.34
2023-03-18T23:05:25.702Z,11.26
2023-03-18T23:08:23.617Z,11.31
2023-03-18T23:11:17.185Z,11.25
2023-03-18T23:14:21.474Z,11.33
2023-03-18T23:17:17.418Z,11.33
2023-03-18T23:20:15.860Z,11.34
2023-03-18T23:23:09.268Z,11.24
2023-03-18T23:26:02.324Z,11.37
2023-03-18T23:29:05.101Z,11.22
2023-03-18T23:31:59.602Z,11.24
2023-03-18T23:34:51.915Z,11.23
2023-03-18T23:37:44.506Z,11.29
2023-03-18T23:40:40.746Z,11.06
2023-03-18T23:43:37.135Z,11.14
2023-03-18T23:46:29.763Z,11.13
2023-03-18T23:49:23.705Z,11.15
2023-03-18T23:52:18.130Z,11.17
2023-03-18T23:55:33.937Z,11.12
2023-03-18T23:58:38.403Z,11.11
